Time;durP1;ratioP1;P1;durP2;ratioP2;P2;SDS_P1;SDS_P2;PMS_P1;PMS_P2;Temp;Humidity;BMP_temperature;BMP_pressure;BME280_temperature;BME280_humidity;BME280_pressure;Samples;Min_cycle;Max_cycle;Signal;HPM_P1;HPM_P2
2020/12/12 00:02:21;;;;;;;18.90;12.20;;;3.10;99.90;;;;;;6157833;23;20401;-90
2020/12/12 00:05:39;;;;;;;15.73;11.50;;;3.00;99.90;;;;;;6159467;23;20457;-91
2020/12/12 00:08:07;;;;;;;16.30;11.10;;;3.00;99.90;;;;;;6159847;23;20388;-90
2020/12/12 00:10:38;;;;;;;14.97;11.37;;;3.00;99.90;;;;;;6156695;23;20714;-91
2020/12/12 00:15:49;;;;;;;14.57;10.90;;;3.10;99.90;;;;;;6198277;23;20466;-92
2020/12/12 00:18:14;;;;;;;13.47;11.10;;;3.10;99.90;;;;;;6161983;23;20388;-92
2020/12/12 00:20:40;;;;;;;17.20;12.03;;;3.20;99.90;;;;;;6162982;23;20530;-93
2020/12/12 00:23:07;;;;;;;17.07;11.90;;;3.20;99.90;;;;;;6158749;23;20153;-90
2020/12/12 00:25:33;;;;;;;16.27;11.80;;;3.20;99.90;;;;;;6158370;23;20183;-91
2020/12/12 00:28:04;;;;;;;18.47;12.90;;;3.20;99.90;;;;;;6159271;23;20392;-91
2020/12/12 00:30:32;;;;;;;15.50;11.77;;;3.30;99.90;;;;;;6160712;23;20151;-92
2020/12/12 00:33:07;;;;;;;17.23;12.17;;;3.30;99.90;;;;;;6157317;23;20411;-92
2020/12/12 00:35:32;;;;;;;15.30;11.30;;;3.30;99.90;;;;;;6158832;23;20179;-91
2020/12/12 00:37:58;;;;;;;14.23;10.47;;;3.40;99.90;;;;;;6157131;23;20384;-93
2020/12/12 00:40:24;;;;;;;13.20;10.13;;;3.50;99.90;;;;;;6159882;23;20161;-93
2020/12/12 00:42:50;;;;;;;14.80;11.20;;;3.60;99.90;;;;;;6158655;23;20222;-92
2020/12/12 00:45:15;;;;;;;14.17;10.47;;;3.70;99.90;;;;;;6160289;23;20153;-94
2020/12/12 00:47:47;;;;;;;14.60;9.37;;;3.80;99.90;;;;;;6160927;23;20228;-93
2020/12/12 00:50:15;;;;;;;15.70;10.67;;;3.80;99.90;;;;;;6160218;23;20223;-94
2020/12/12 00:52:41;;;;;;;13.67;10.10;;;3.70;99.90;;;;;;6158862;23;20444;-93
2020/12/12 00:55:07;;;;;;;12.50;9.40;;;3.70;99.90;;;;;;6157361;23;20180;-93
2020/12/12 00:57:32;;;;;;;11.50;9.17;;;3.60;99.90;;;;;;6157975;23;20164;-94
2020/12/12 00:59:58;;;;;;;11.90;8.67;;;3.60;99.90;;;;;;6158029;23;20615;-93
2020/12/12 01:02:24;;;;;;;11.67;8.53;;;3.80;99.90;;;;;;6157073;23;20207;-93
2020/12/12 01:04:49;;;;;;;11.37;8.47;;;3.90;99.90;;;;;;6156911;23;20184;-93
2020/12/12 01:07:15;;;;;;;11.50;9.13;;;3.90;99.90;;;;;;6156683;23;20191;-91
2020/12/12 01:09:40;;;;;;;13.20;9.70;;;3.90;99.90;;;;;;6154890;23;20158;-92
2020/12/12 01:12:06;;;;;;;12.67;8.87;;;3.90;99.90;;;;;;6155811;23;20206;-92
2020/12/12 01:14:32;;;;;;;11.70;9.83;;;4.00;99.90;;;;;;6155882;23;20214;-92
2020/12/12 01:17:03;;;;;;;11.40;8.37;;;4.00;99.90;;;;;;6155372;23;20161;-93
2020/12/12 01:19:30;;;;;;;13.20;9.73;;;3.90;99.90;;;;;;6154662;23;20180;-93
2020/12/12 01:21:55;;;;;;;12.20;9.47;;;3.80;99.90;;;;;;6156040;23;20384;-91
2020/12/12 01:24:21;;;;;;;15.83;9.70;;;3.70;99.90;;;;;;6155266;23;20407;-92
2020/12/12 01:26:58;;;;;;;16.00;9.93;;;3.60;99.90;;;;;;6154461;23;20500;-94
2020/12/12 01:29:27;;;;;;;12.00;9.00;;;3.50;99.90;;;;;;6154779;23;20165;-91
2020/12/12 01:31:52;;;;;;;14.80;9.93;;;3.50;99.90;;;;;;6154519;23;20757;-93
2020/12/12 01:34:21;;;;;;;13.23;9.27;;;3.50;99.90;;;;;;6154035;23;20391;-93
2020/12/12 01:36:53;;;;;;;11.97;8.50;;;3.40;99.90;;;;;;6154474;23;20515;-92
2020/12/12 01:39:26;;;;;;;11.57;8.90;;;3.30;99.90;;;;;;6153389;23;20455;-91
2020/12/12 01:45:07;;;;;;;13.00;9.53;;;3.30;99.90;;;;;;6183719;23;20459;-92
2020/12/12 01:47:39;;;;;;;12.70;9.10;;;3.20;99.90;;;;;;6155460;23;20409;-92
2020/12/12 01:50:29;;;;;;;15.77;10.53;;;3.10;99.90;;;;;;6181297;23;20449;-93
2020/12/12 01:52:56;;;;;;;12.30;9.57;;;3.20;99.90;;;;;;6156903;23;20522;-92
2020/12/12 01:55:28;;;;;;;14.43;10.93;;;3.30;99.90;;;;;;6181433;23;20605;-93
2020/12/12 01:57:56;;;;;;;13.40;9.70;;;3.30;99.90;;;;;;6155138;23;20391;-92
2020/12/12 02:00:24;;;;;;;11.70;9.10;;;3.20;99.90;;;;;;6155464;23;20395;-92
2020/12/12 02:05:58;;;;;;;11.17;8.90;;;3.20;99.90;;;;;;6183696;23;20391;-91
2020/12/12 02:08:46;;;;;;;12.20;9.10;;;3.10;99.90;;;;;;6181446;23;20471;-91
2020/12/12 02:11:42;;;;;;;11.87;9.47;;;3.00;99.90;;;;;;6152875;23;20707;-91
2020/12/12 02:14:31;;;;;;;12.77;9.10;;;2.90;99.90;;;;;;6180651;23;20402;-93
2020/12/12 02:19:44;;;;;;;12.60;8.40;;;2.90;99.90;;;;;;6181373;23;20410;-92
2020/12/12 02:22:18;;;;;;;15.17;9.73;;;2.90;99.90;;;;;;6155414;23;20395;-92
2020/12/12 02:24:51;;;;;;;11.50;8.40;;;2.90;99.90;;;;;;6154947;23;20426;-92
2020/12/12 02:27:40;;;;;;;13.00;8.60;;;2.90;99.90;;;;;;6151002;23;20421;-92
2020/12/12 02:30:13;;;;;;;12.80;8.90;;;2.90;99.90;;;;;;6181406;23;20695;-92
2020/12/12 02:32:38;;;;;;;12.80;8.97;;;2.90;99.90;;;;;;6154911;23;20400;-92
2020/12/12 02:35:05;;;;;;;13.67;8.90;;;3.00;99.90;;;;;;6155695;23;20180;-91
2020/12/12 02:37:31;;;;;;;12.43;9.50;;;3.10;99.90;;;;;;6153692;23;20167;-91
2020/12/12 02:39:57;;;;;;;12.33;9.27;;;3.10;99.90;;;;;;6153578;23;20418;-92
2020/12/12 02:42:23;;;;;;;12.03;8.70;;;3.10;99.90;;;;;;6155041;23;20448;-92
2020/12/12 02:44:54;;;;;;;12.43;9.53;;;3.10;99.90;;;;;;6155507;23;20184;-93
2020/12/12 02:47:20;;;;;;;10.20;8.17;;;3.20;99.90;;;;;;6154519;23;20210;-92
2020/12/12 02:50:10;;;;;;;11.80;8.70;;;3.20;99.90;;;;;;6155147;23;20391;-92
2020/12/12 02:52:38;;;;;;;12.57;9.30;;;3.20;99.90;;;;;;6155012;23;20380;-92
2020/12/12 02:55:06;;;;;;;12.67;8.87;;;3.20;99.90;;;;;;6154471;23;20455;-92
2020/12/12 02:57:34;;;;;;;11.70;9.57;;;3.20;99.90;;;;;;6156745;23;20379;-92
2020/12/12 03:00:05;;;;;;;12.00;9.40;;;3.20;99.90;;;;;;6155102;23;20478;-93
2020/12/12 03:02:33;;;;;;;12.07;8.40;;;3.30;99.90;;;;;;6157071;23;20378;-91
2020/12/12 03:05:04;;;;;;;16.07;9.47;;;3.30;99.90;;;;;;6156096;23;20398;-93
2020/12/12 03:07:34;;;;;;;12.10;9.90;;;3.30;99.90;;;;;;6156666;23;20741;-91
2020/12/12 03:10:14;;;;;;;11.70;8.97;;;3.30;99.90;;;;;;6155754;23;20435;-93
2020/12/12 03:13:06;;;;;;;12.13;9.10;;;3.40;99.90;;;;;;6156608;23;20396;-92
2020/12/12 03:15:53;;;;;;;15.80;9.43;;;3.50;99.90;;;;;;6181180;23;20525;-92
2020/12/12 03:18:42;;;;;;;11.60;9.03;;;3.50;99.90;;;;;;6155953;23;20386;-92
2020/12/12 03:24:00;;;;;;;11.30;9.17;;;3.50;99.90;;;;;;6183567;23;20392;-91
2020/12/12 03:26:32;;;;;;;9.00;8.10;;;3.60;99.90;;;;;;6131533;23;20921;-92
2020/12/12 03:28:57;;;;;;;10.90;7.73;;;3.70;99.90;;;;;;6156907;23;20160;-92
2020/12/12 03:31:23;;;;;;;10.23;7.77;;;3.80;99.90;;;;;;6156495;23;20631;-92
2020/12/12 03:33:49;;;;;;;10.50;8.23;;;3.90;99.90;;;;;;6157195;23;20202;-92
2020/12/12 03:36:17;;;;;;;11.03;8.13;;;4.00;99.90;;;;;;6154936;23;20189;-92
2020/12/12 03:39:03;;;;;;;10.30;8.37;;;4.00;99.90;;;;;;6181994;23;20379;-92
2020/12/12 03:41:31;;;;;;;10.63;7.33;;;4.00;99.90;;;;;;6156678;23;20384;-93
2020/12/12 03:44:05;;;;;;;9.90;7.67;;;4.00;99.90;;;;;;6156080;23;20399;-93
2020/12/12 03:46:34;;;;;;;9.90;7.53;;;4.10;99.90;;;;;;6157738;23;20386;-93
2020/12/12 03:48:59;;;;;;;9.80;7.83;;;4.00;99.90;;;;;;6157400;23;20453;-94
2020/12/12 03:51:27;;;;;;;11.77;9.10;;;4.10;99.90;;;;;;6156619;23;20454;-93
2020/12/12 03:53:56;;;;;;;10.10;8.30;;;4.10;99.90;;;;;;6157547;23;20152;-93
2020/12/12 03:56:22;;;;;;;10.90;9.40;;;4.10;99.90;;;;;;6156637;23;20454;-91
2020/12/12 03:58:50;;;;;;;17.90;12.20;;;4.10;99.90;;;;;;6155407;23;20388;-91
2020/12/12 04:01:16;;;;;;;23.70;16.50;;;4.10;99.90;;;;;;6157197;23;20163;-91
2020/12/12 04:03:53;;;;;;;21.20;15.13;;;4.10;99.90;;;;;;6155864;23;20375;-91
2020/12/12 04:06:21;;;;;;;19.13;14.87;;;4.10;99.90;;;;;;6155405;23;20391;-91
2020/12/12 04:08:50;;;;;;;19.50;13.50;;;4.10;99.90;;;;;;6155593;23;20383;-91
2020/12/12 04:11:15;;;;;;;15.17;11.70;;;4.10;99.90;;;;;;6156548;23;20396;-91
2020/12/12 04:13:41;;;;;;;10.67;8.30;;;4.00;99.90;;;;;;6155392;23;20392;-92
2020/12/12 04:16:10;;;;;;;12.03;9.23;;;4.00;99.90;;;;;;6155615;23;20435;-91
2020/12/12 04:18:36;;;;;;;9.63;8.60;;;4.00;99.90;;;;;;6156240;23;20894;-92
2020/12/12 04:21:06;;;;;;;12.20;10.00;;;4.10;99.90;;;;;;6155950;23;20400;-92
2020/12/12 04:23:45;;;;;;;13.03;10.80;;;4.10;99.90;;;;;;6156971;23;20231;-92
2020/12/12 04:26:51;;;;;;;11.30;9.57;;;4.00;99.90;;;;;;6156626;23;20391;-94
2020/12/12 04:29:42;;;;;;;12.67;9.87;;;3.90;99.90;;;;;;6157265;23;20396;-93
2020/12/12 04:32:12;;;;;;;13.33;10.27;;;4.00;99.90;;;;;;6156044;23;20392;-92
2020/12/12 04:34:42;;;;;;;11.47;9.10;;;4.00;99.90;;;;;;6148120;23;20781;-92
2020/12/12 04:37:08;;;;;;;10.33;8.17;;;4.00;99.90;;;;;;6154711;23;20427;-91
2020/12/12 04:39:36;;;;;;;12.07;8.20;;;3.90;99.90;;;;;;6155992;23;20426;-91
2020/12/12 04:42:01;;;;;;;8.50;7.30;;;3.90;99.90;;;;;;6154409;23;20219;-92
2020/12/12 04:44:42;;;;;;;8.37;7.47;;;3.80;99.90;;;;;;6155510;23;20395;-91
2020/12/12 04:47:33;;;;;;;8.27;6.70;;;3.80;99.90;;;;;;6155296;23;20160;-91
2020/12/12 04:50:05;;;;;;;10.80;8.67;;;3.80;99.90;;;;;;6155200;23;20881;-93
2020/12/12 04:55:10;;;;;;;9.80;8.80;;;3.80;99.90;;;;;;6182537;23;20890;-93
2020/12/12 04:57:39;;;;;;;8.87;7.40;;;3.80;99.90;;;;;;6155678;23;20396;-93
2020/12/12 05:00:11;;;;;;;9.33;7.37;;;3.80;99.90;;;;;;6155556;23;20402;-93
2020/12/12 05:02:37;;;;;;;11.33;8.10;;;3.80;99.90;;;;;;6156395;23;20396;-93
2020/12/12 05:05:07;;;;;;;11.10;7.57;;;3.80;99.90;;;;;;6182116;23;20380;-93
2020/12/12 05:07:33;;;;;;;9.27;8.13;;;3.90;99.90;;;;;;6154900;23;20395;-92
2020/12/12 05:10:00;;;;;;;9.33;8.10;;;3.90;99.90;;;;;;6155024;23;20380;-92
2020/12/12 05:12:26;;;;;;;10.57;8.00;;;3.80;99.90;;;;;;6131243;23;20431;-91
2020/12/12 05:14:52;;;;;;;10.97;8.90;;;3.80;99.90;;;;;;6154694;23;20866;-92
2020/12/12 05:17:21;;;;;;;9.90;8.10;;;3.80;99.90;;;;;;6155758;23;20395;-91
2020/12/12 05:19:48;;;;;;;9.60;8.60;;;3.70;99.90;;;;;;6155149;23;20152;-92
2020/12/12 05:22:16;;;;;;;9.83;7.80;;;3.70;99.90;;;;;;6156518;23;20708;-92
2020/12/12 05:24:42;;;;;;;9.67;8.00;;;3.70;99.90;;;;;;6156951;23;20380;-91
2020/12/12 05:27:09;;;;;;;11.23;8.27;;;3.80;99.90;;;;;;6157064;23;20438;-93
2020/12/12 05:29:34;;;;;;;10.03;8.80;;;3.80;99.90;;;;;;6157037;23;20718;-92
2020/12/12 05:32:01;;;;;;;9.87;8.17;;;3.80;99.90;;;;;;6158240;23;20418;-92
2020/12/12 05:34:28;;;;;;;10.37;8.80;;;3.80;99.90;;;;;;6133641;23;20160;-94
2020/12/12 05:36:55;;;;;;;11.00;8.30;;;3.80;99.90;;;;;;6157446;23;20471;-91
2020/12/12 05:39:21;;;;;;;10.60;8.90;;;3.90;99.90;;;;;;6155287;23;20388;-93
2020/12/12 05:41:48;;;;;;;9.60;8.60;;;3.80;99.90;;;;;;6156749;23;20403;-92
2020/12/12 05:44:16;;;;;;;8.97;7.87;;;3.80;99.90;;;;;;6157678;23;20384;-91
2020/12/12 05:46:43;;;;;;;11.70;9.40;;;3.80;99.90;;;;;;6155163;23;20422;-91
2020/12/12 05:49:09;;;;;;;11.90;9.20;;;3.80;99.90;;;;;;6155061;23;20723;-92
2020/12/12 05:51:37;;;;;;;13.30;9.20;;;3.80;99.90;;;;;;6155002;23;20392;-92
2020/12/12 05:54:03;;;;;;;16.13;10.83;;;3.80;99.90;;;;;;6156045;23;20163;-92
2020/12/12 05:56:31;;;;;;;13.97;10.80;;;3.80;99.90;;;;;;6155745;23;20442;-93
2020/12/12 05:58:57;;;;;;;14.03;11.37;;;3.90;99.90;;;;;;6157831;23;20922;-93
2020/12/12 06:01:28;;;;;;;12.17;10.03;;;3.90;99.90;;;;;;6157725;23;20730;-93
2020/12/12 06:04:00;;;;;;;13.90;10.37;;;3.90;99.90;;;;;;6175275;23;20480;-94
2020/12/12 06:06:42;;;;;;;11.60;10.33;;;3.90;99.90;;;;;;6179522;23;20418;-92
2020/12/12 06:09:14;;;;;;;11.83;9.20;;;3.70;99.90;;;;;;6180635;23;20387;-93
2020/12/12 06:11:50;;;;;;;10.40;9.00;;;3.70;99.90;;;;;;6180644;23;20410;-93
2020/12/12 06:14:18;;;;;;;11.60;9.40;;;3.70;99.90;;;;;;6182596;23;20398;-93
2020/12/12 06:16:46;;;;;;;12.03;9.20;;;3.70;99.90;;;;;;6173787;23;20486;-91
2020/12/12 06:19:17;;;;;;;10.13;8.50;;;3.70;99.90;;;;;;6172796;23;20431;-90
2020/12/12 06:21:50;;;;;;;10.93;8.37;;;3.70;99.90;;;;;;6171509;23;20400;-90
2020/12/12 06:24:18;;;;;;;9.57;8.10;;;3.70;99.90;;;;;;6174244;23;20389;-90
2020/12/12 06:27:17;;;;;;;11.30;8.57;;;3.70;99.90;;;;;;6170437;23;20391;-91
2020/12/12 06:50:33;;;;;;;9.43;8.43;;;4.00;99.90;;;;;;6221710;22;20422;-94
2020/12/12 06:53:01;;;;;;;11.17;9.30;;;4.00;99.90;;;;;;6221962;23;20401;-95
2020/12/12 07:03:22;;;;;;;13.67;11.20;;;3.90;99.90;;;;;;6214040;22;20426;-89
2020/12/12 07:05:47;;;;;;;9.93;8.17;;;3.90;99.90;;;;;;6182026;23;20398;-88
2020/12/12 07:08:13;;;;;;;10.80;8.87;;;3.90;99.90;;;;;;6183203;23;20567;-89
2020/12/12 07:10:41;;;;;;;7.57;6.40;;;3.90;99.90;;;;;;6208324;23;20635;-89
2020/12/12 07:13:08;;;;;;;9.00;8.07;;;3.90;99.90;;;;;;6181613;23;20383;-88
2020/12/12 07:15:37;;;;;;;11.10;8.47;;;4.00;99.90;;;;;;6182913;23;20443;-87
2020/12/12 07:18:04;;;;;;;8.43;7.63;;;4.10;99.90;;;;;;6177621;23;20394;-87
2020/12/12 07:20:38;;;;;;;12.07;9.17;;;4.20;99.90;;;;;;6179785;23;20397;-88
2020/12/12 07:23:05;;;;;;;9.40;8.30;;;4.20;99.90;;;;;;6186297;23;20470;-90
2020/12/12 07:25:32;;;;;;;9.40;8.40;;;4.30;99.90;;;;;;6183294;23;20392;-90
2020/12/12 07:27:59;;;;;;;10.20;8.43;;;4.40;99.90;;;;;;6182784;23;20474;-89
2020/12/12 07:30:26;;;;;;;8.07;6.83;;;4.50;99.90;;;;;;6183852;23;20478;-90
2020/12/12 07:32:53;;;;;;;7.70;6.80;;;4.60;99.90;;;;;;6180900;23;20387;-88
2020/12/12 07:35:18;;;;;;;6.73;6.03;;;4.60;99.90;;;;;;6177900;23;20466;-91
2020/12/12 07:37:44;;;;;;;7.07;6.10;;;4.70;99.90;;;;;;6178546;23;20391;-90
2020/12/12 07:40:10;;;;;;;6.13;5.13;;;4.70;99.90;;;;;;6174302;23;20159;-88
2020/12/12 07:42:36;;;;;;;5.60;5.10;;;4.80;99.90;;;;;;6178672;23;20163;-90
2020/12/12 07:45:17;;;;;;;6.60;5.83;;;4.80;99.90;;;;;;6181086;23;20415;-91
2020/12/12 07:47:44;;;;;;;7.20;6.60;;;4.90;99.90;;;;;;6181545;23;20481;-91
2020/12/12 07:50:10;;;;;;;5.73;5.10;;;4.90;99.90;;;;;;6180241;23;20399;-90
2020/12/12 07:52:35;;;;;;;13.37;10.53;;;4.80;99.90;;;;;;6180878;23;20747;-90
2020/12/12 07:55:11;;;;;;;11.67;9.13;;;4.80;99.90;;;;;;6177689;23;20203;-90
2020/12/12 07:57:43;;;;;;;10.13;8.03;;;4.80;99.90;;;;;;6180161;23;20155;-90
2020/12/12 08:00:12;;;;;;;9.17;7.70;;;4.80;99.90;;;;;;6179110;23;20433;-90
2020/12/12 08:02:38;;;;;;;11.37;9.20;;;4.80;99.90;;;;;;6179599;23;20497;-91
2020/12/12 08:05:05;;;;;;;9.37;8.30;;;4.80;99.90;;;;;;6178499;23;20481;-90
2020/12/12 08:07:48;;;;;;;11.43;8.60;;;4.80;99.90;;;;;;6179829;23;20411;-90
2020/12/12 08:10:55;;;;;;;11.10;9.67;;;4.80;99.90;;;;;;6182569;23;20397;-89
2020/12/12 08:13:36;;;;;;;11.40;9.70;;;4.90;99.90;;;;;;6192334;23;20450;-90
2020/12/12 08:16:47;;;;;;;10.20;8.77;;;5.00;99.90;;;;;;6190003;23;20521;-90
2020/12/12 08:19:13;;;;;;;11.67;10.13;;;5.00;99.90;;;;;;6179011;23;20402;-93
2020/12/12 08:21:39;;;;;;;9.87;8.80;;;5.00;99.90;;;;;;6199634;23;20481;-90
2020/12/12 08:24:06;;;;;;;8.90;8.00;;;5.00;99.90;;;;;;6176830;23;20149;-87
2020/12/12 08:26:46;;;;;;;11.37;7.90;;;5.00;99.90;;;;;;6177077;23;20154;-90
2020/12/12 08:29:54;;;;;;;7.17;6.30;;;5.10;99.90;;;;;;6178529;23;20713;-91
2020/12/12 08:32:47;;;;;;;6.67;5.97;;;5.20;99.90;;;;;;6178061;23;20383;-91
2020/12/12 08:35:15;;;;;;;6.57;5.87;;;5.10;99.90;;;;;;6176732;23;20865;-90
2020/12/12 08:38:11;;;;;;;7.40;6.70;;;5.10;99.90;;;;;;6176941;23;20684;-89
2020/12/12 08:40:48;;;;;;;9.23;6.93;;;5.20;99.90;;;;;;6174953;23;20390;-90
2020/12/12 08:43:15;;;;;;;6.63;5.90;;;5.30;99.90;;;;;;6174908;23;20410;-90
2020/12/12 08:46:00;;;;;;;6.77;6.07;;;5.40;99.90;;;;;;6176160;23;20459;-89
2020/12/12 08:48:44;;;;;;;7.83;6.47;;;5.50;99.90;;;;;;6177964;23;20383;-90
2020/12/12 08:51:50;;;;;;;7.50;5.90;;;5.40;99.90;;;;;;6175853;23;20435;-92
2020/12/12 08:54:56;;;;;;;5.80;5.10;;;5.50;99.90;;;;;;6178067;23;20390;-91
2020/12/12 08:58:01;;;;;;;6.50;4.70;;;5.50;99.90;;;;;;6175883;23;20400;-87
2020/12/12 09:00:45;;;;;;;6.10;5.00;;;5.50;99.90;;;;;;6176299;23;20442;-90
2020/12/12 09:03:28;;;;;;;5.63;4.80;;;5.60;99.90;;;;;;6200920;23;20394;-89
2020/12/12 09:06:06;;;;;;;5.87;5.13;;;5.60;99.90;;;;;;6204066;23;20797;-89
2020/12/12 09:08:47;;;;;;;7.30;6.37;;;5.70;99.90;;;;;;6179511;23;20683;-92
2020/12/12 09:11:51;;;;;;;7.53;5.87;;;5.70;99.90;;;;;;6178169;23;20439;-92
2020/12/12 09:14:48;;;;;;;7.90;5.77;;;5.80;99.90;;;;;;6181954;23;20401;-92
2020/12/12 09:17:27;;;;;;;5.50;4.90;;;5.90;99.90;;;;;;6177271;23;20519;-92
2020/12/12 09:19:54;;;;;;;6.97;5.47;;;5.90;99.90;;;;;;6204038;23;20890;-88
2020/12/12 09:22:44;;;;;;;9.70;6.33;;;6.00;99.90;;;;;;6176737;23;20477;-86
2020/12/12 09:25:11;;;;;;;5.90;5.20;;;6.20;99.90;;;;;;6176309;23;20201;-89
2020/12/12 09:27:37;;;;;;;4.73;4.23;;;6.90;99.90;;;;;;6175679;23;20390;-87
2020/12/12 09:30:03;;;;;;;7.93;5.13;;;7.10;99.90;;;;;;6177636;23;20872;-90
2020/12/12 09:32:47;;;;;;;6.03;5.47;;;6.90;99.90;;;;;;6175994;23;20165;-88
2020/12/12 09:35:48;;;;;;;7.37;5.70;;;6.70;99.90;;;;;;6177013;23;20192;-87
2020/12/12 09:38:44;;;;;;;9.73;6.97;;;6.60;99.90;;;;;;6177447;23;20372;-87
2020/12/12 09:41:44;;;;;;;8.03;6.20;;;6.50;99.90;;;;;;6202933;23;20426;-88
2020/12/12 09:44:44;;;;;;;8.33;7.00;;;6.30;99.90;;;;;;6174767;23;20475;-87
2020/12/12 09:47:10;;;;;;;10.63;8.17;;;6.20;99.90;;;;;;6171476;23;20448;-87
2020/12/12 09:49:36;;;;;;;9.47;7.57;;;6.10;99.90;;;;;;6175101;23;20712;-87
2020/12/12 09:52:02;;;;;;;6.70;6.10;;;6.10;99.90;;;;;;6174149;23;20867;-87
2020/12/12 09:54:46;;;;;;;7.90;5.70;;;6.10;99.90;;;;;;6176302;23;20153;-88
2020/12/12 09:57:46;;;;;;;7.03;6.13;;;6.10;99.90;;;;;;6175873;23;20178;-87
2020/12/12 10:00:50;;;;;;;6.63;5.93;;;6.20;99.90;;;;;;6175461;23;20546;-88
2020/12/12 10:03:44;;;;;;;6.00;5.40;;;6.20;99.90;;;;;;6172234;23;20490;-86
2020/12/12 10:06:49;;;;;;;5.50;5.00;;;6.30;99.90;;;;;;6174598;23;20384;-88
2020/12/12 10:09:15;;;;;;;6.77;5.80;;;6.30;99.90;;;;;;6178025;23;20390;-92
2020/12/12 10:11:44;;;;;;;7.03;5.83;;;6.30;99.90;;;;;;6176819;23;20858;-91
2020/12/12 10:14:09;;;;;;;9.07;6.20;;;6.20;99.90;;;;;;6176511;23;20158;-89
2020/12/12 10:16:35;;;;;;;7.43;6.60;;;6.30;99.90;;;;;;6174867;23;21028;-89
2020/12/12 10:19:21;;;;;;;17.57;15.17;;;6.40;99.90;;;;;;6178620;23;20172;-90
2020/12/12 10:21:52;;;;;;;9.90;8.40;;;6.40;99.90;;;;;;6177436;23;20161;-90
2020/12/12 10:24:30;;;;;;;7.10;6.40;;;6.40;99.90;;;;;;6202036;23;20851;-92
2020/12/12 10:30:46;;;;;;;8.23;7.43;;;6.30;99.90;;;;;;6198239;23;20385;-90
2020/12/12 10:33:15;;;;;;;7.70;7.00;;;6.30;99.90;;;;;;6175819;23;20451;-90
2020/12/12 10:36:08;;;;;;;8.03;6.37;;;6.30;99.90;;;;;;6176397;23;20440;-91
2020/12/12 10:38:35;;;;;;;7.47;5.70;;;6.30;99.90;;;;;;6178368;23;20399;-91
2020/12/12 10:41:04;;;;;;;14.43;12.00;;;6.20;99.90;;;;;;6177992;23;20387;-92
2020/12/12 10:43:30;;;;;;;6.40;5.80;;;6.20;99.90;;;;;;6179678;23;20687;-92
2020/12/12 10:46:11;;;;;;;7.40;6.80;;;6.20;99.90;;;;;;6179169;23;20391;-92
2020/12/12 10:48:38;;;;;;;6.33;5.73;;;6.30;99.90;;;;;;6205536;23;20161;-92
2020/12/12 10:51:04;;;;;;;7.47;6.23;;;6.30;99.90;;;;;;6204946;23;20719;-92
2020/12/12 10:53:30;;;;;;;6.40;5.80;;;6.30;99.90;;;;;;6179611;23;20458;-92
2020/12/12 10:55:55;;;;;;;6.23;5.40;;;6.30;99.90;;;;;;6179518;23;20195;-92
2020/12/12 10:58:22;;;;;;;4.87;4.40;;;6.30;99.90;;;;;;6180017;23;20163;-92
2020/12/12 11:00:49;;;;;;;4.90;4.50;;;6.30;99.90;;;;;;6179119;23;20164;-93
2020/12/12 11:03:42;;;;;;;5.90;5.50;;;6.20;99.90;;;;;;6179747;23;20830;-93
2020/12/12 11:06:10;;;;;;;5.67;5.27;;;6.30;99.90;;;;;;6179402;23;20399;-92
2020/12/12 11:08:36;;;;;;;6.00;5.50;;;6.20;99.90;;;;;;6181369;23;20385;-93
2020/12/12 11:11:02;;;;;;;5.30;4.30;;;6.30;99.90;;;;;;6178848;23;20391;-92
2020/12/12 11:13:28;;;;;;;5.30;4.80;;;6.30;99.90;;;;;;6179270;23;20215;-92
2020/12/12 11:16:14;;;;;;;5.50;5.00;;;6.40;99.90;;;;;;6178239;23;20768;-93
2020/12/12 11:18:39;;;;;;;5.07;4.57;;;6.40;99.90;;;;;;6182279;23;20395;-92
2020/12/12 11:21:10;;;;;;;5.03;4.53;;;6.40;99.90;;;;;;6181445;23;20385;-92
2020/12/12 11:23:52;;;;;;;5.00;4.50;;;6.40;99.90;;;;;;6181794;23;20157;-92
2020/12/12 11:26:20;;;;;;;6.13;5.53;;;6.30;99.90;;;;;;6180780;23;20771;-91
2020/12/12 11:29:32;;;;;;;6.33;5.70;;;6.30;99.90;;;;;;6181814;23;20397;-92
2020/12/12 11:31:58;;;;;;;5.13;4.53;;;6.40;99.90;;;;;;6181159;23;20715;-93
2020/12/12 11:34:35;;;;;;;4.63;4.23;;;6.40;99.90;;;;;;6181968;23;20494;-93
2020/12/12 11:40:53;;;;;;;4.53;4.13;;;6.40;99.90;;;;;;6206833;23;20421;-91
2020/12/12 11:48:34;;;;;;;5.17;4.60;;;6.40;99.90;;;;;;6216953;23;20377;-92
2020/12/12 11:51:02;;;;;;;4.80;4.23;;;6.50;99.90;;;;;;6181668;23;20413;-92
2020/12/12 11:53:28;;;;;;;4.57;4.07;;;6.50;99.90;;;;;;6180027;23;20504;-92
2020/12/12 11:58:39;;;;;;;4.97;4.30;;;6.70;99.90;;;;;;6220407;23;20175;-92
2020/12/12 12:01:23;;;;;;;4.50;4.10;;;6.60;99.90;;;;;;6210000;23;20714;-92
2020/12/12 12:03:53;;;;;;;4.23;3.93;;;6.60;99.90;;;;;;6182254;23;20460;-93
2020/12/12 12:06:26;;;;;;;4.30;3.57;;;6.70;99.90;;;;;;6182053;23;20394;-91
2020/12/12 12:11:34;;;;;;;5.50;4.97;;;6.80;99.90;;;;;;6209632;23;20374;-91
2020/12/12 12:14:09;;;;;;;5.43;4.93;;;6.80;99.90;;;;;;6181912;23;20397;-92
2020/12/12 12:16:38;;;;;;;7.13;5.27;;;6.80;99.90;;;;;;6182127;23;20616;-92
2020/12/12 12:19:11;;;;;;;5.73;5.10;;;7.00;99.90;;;;;;6180501;23;20393;-91
2020/12/12 12:21:38;;;;;;;6.87;6.17;;;7.20;99.90;;;;;;6180017;23;20413;-91
2020/12/12 12:24:06;;;;;;;5.43;4.80;;;7.50;99.90;;;;;;6180650;23;20394;-90
2020/12/12 12:26:36;;;;;;;9.10;6.90;;;7.60;99.90;;;;;;6180259;23;20382;-92
2020/12/12 12:29:07;;;;;;;5.90;5.40;;;7.80;99.90;;;;;;6177793;23;20383;-90
2020/12/12 12:31:34;;;;;;;5.77;5.27;;;7.90;99.90;;;;;;6178126;23;20396;-90
2020/12/12 12:34:00;;;;;;;5.47;4.97;;;8.00;99.90;;;;;;6179636;23;20704;-88
2020/12/12 12:36:27;;;;;;;6.30;5.80;;;8.30;99.90;;;;;;6179134;23;20481;-90
2020/12/12 12:38:53;;;;;;;13.20;12.00;;;8.50;99.90;;;;;;6178678;23;20390;-91
2020/12/12 12:41:50;;;;;;;14.30;13.10;;;8.50;99.90;;;;;;6178981;23;20407;-90
2020/12/12 12:44:16;;;;;;;12.30;11.10;;;8.70;99.90;;;;;;6180037;23;20396;-89
2020/12/12 12:47:21;;;;;;;5.73;4.80;;;8.50;99.90;;;;;;6180317;23;20470;-90
2020/12/12 12:49:51;;;;;;;8.33;5.90;;;8.70;99.90;;;;;;6208820;23;20376;-91
2020/12/12 12:52:16;;;;;;;10.73;7.80;;;8.50;99.90;;;;;;6182201;23;20392;-91
2020/12/12 12:54:42;;;;;;;5.20;4.70;;;8.20;99.90;;;;;;6182070;23;20198;-90
2020/12/12 12:57:08;;;;;;;7.73;5.20;;;8.00;99.90;;;;;;6181209;23;20654;-90
2020/12/12 12:59:33;;;;;;;6.57;5.90;;;7.90;99.90;;;;;;6180652;23;20156;-90
2020/12/12 13:01:59;;;;;;;6.10;5.50;;;7.80;99.90;;;;;;6180301;23;20159;-89
2020/12/12 13:04:25;;;;;;;8.27;6.90;;;7.70;99.90;;;;;;6155491;23;20174;-90
2020/12/12 13:06:52;;;;;;;14.00;10.77;;;7.50;99.90;;;;;;6181103;23;20395;-90
2020/12/12 13:09:17;;;;;;;15.83;13.13;;;7.50;99.90;;;;;;6179176;23;20179;-90
2020/12/12 13:11:52;;;;;;;8.50;7.60;;;7.50;99.90;;;;;;6179978;23;20696;-90
2020/12/12 13:14:17;;;;;;;23.40;16.20;;;7.40;99.90;;;;;;6179758;23;20169;-90
2020/12/12 13:16:43;;;;;;;11.20;7.60;;;7.30;99.90;;;;;;6179741;23;20442;-89
2020/12/12 13:19:20;;;;;;;11.37;9.70;;;7.30;99.90;;;;;;6178895;23;20194;-90
2020/12/12 13:21:56;;;;;;;10.10;8.90;;;7.20;99.90;;;;;;6179930;23;20155;-91
2020/12/12 13:24:22;;;;;;;7.50;6.67;;;7.30;99.90;;;;;;6179475;23;20450;-89
2020/12/12 13:27:03;;;;;;;8.77;7.87;;;7.30;99.90;;;;;;6178881;23;20864;-89
2020/12/12 13:32:13;;;;;;;11.37;10.23;;;7.30;99.90;;;;;;6217260;23;20711;-90
2020/12/12 13:34:40;;;;;;;10.00;7.80;;;7.30;99.90;;;;;;6178420;23;20393;-88
2020/12/12 13:37:19;;;;;;;6.30;5.50;;;7.20;99.90;;;;;;6179517;23;20645;-90
2020/12/12 13:42:24;;;;;;;9.93;9.10;;;7.20;99.90;;;;;;6205371;23;20387;-90
2020/12/12 13:44:56;;;;;;;7.80;7.07;;;7.10;99.90;;;;;;6178039;23;20386;-89
2020/12/12 13:47:23;;;;;;;8.63;7.73;;;7.10;99.90;;;;;;6204532;23;20860;-89
2020/12/12 13:50:48;;;;;;;10.10;8.37;;;7.10;99.90;;;;;;6203553;23;20863;-89
2020/12/12 13:53:29;;;;;;;11.70;10.03;;;7.00;99.90;;;;;;6204278;23;20230;-89
2020/12/12 13:55:54;;;;;;;9.90;7.40;;;7.00;99.90;;;;;;6177913;23;20495;-89
2020/12/12 13:58:20;;;;;;;20.80;17.00;;;7.00;99.90;;;;;;6205385;23;20379;-89
2020/12/12 14:01:06;;;;;;;11.73;10.20;;;7.10;99.90;;;;;;6203695;23;20163;-89
2020/12/12 14:03:33;;;;;;;11.03;9.33;;;7.10;99.90;;;;;;6177834;23;20452;-89
2020/12/12 14:06:02;;;;;;;13.53;8.03;;;7.10;99.90;;;;;;6178246;23;20166;-88
2020/12/12 14:08:38;;;;;;;10.07;9.07;;;7.10;99.90;;;;;;6178259;23;20697;-89
2020/12/12 14:23:55;;;;;;;12.53;11.17;;;7.00;99.90;;;;;;6204484;23;20163;-88
2020/12/12 14:26:21;;;;;;;13.47;12.17;;;6.90;99.90;;;;;;6153651;23;20167;-89
2020/12/12 14:28:47;;;;;;;9.30;8.30;;;7.00;99.90;;;;;;6178680;23;20158;-89
2020/12/12 14:31:13;;;;;;;8.90;8.10;;;7.00;99.90;;;;;;6177528;23;20762;-88
2020/12/12 14:33:38;;;;;;;9.60;8.70;;;7.00;99.90;;;;;;6175949;23;20461;-89
2020/12/12 14:36:04;;;;;;;8.77;7.90;;;7.00;99.90;;;;;;6178506;23;20194;-88
2020/12/12 14:38:52;;;;;;;9.33;8.43;;;6.90;99.90;;;;;;6177983;23;20159;-89
2020/12/12 14:41:22;;;;;;;8.83;7.73;;;6.90;99.90;;;;;;6178285;23;20160;-88
2020/12/12 14:43:48;;;;;;;8.80;7.90;;;7.00;99.90;;;;;;6177921;23;20473;-89